Terminal Aerodrome Forecast
Issued by NWS

Home | Current Version | Previous Version | Text Only | Print | Product List | Glossary On
Versions: 1 2 3 4 5 6 7 8 9 10 11 12 13 14 15 16 17 18 19 20
000
FTUS46 KMFR 300800 AAA
TAFOTH
TAF AMD
KOTH 300832Z 3009/0106 15005KT P6SM SCT003 BKN018 BKN025
     FM301200 16003KT 2SM BR BKN003 BKN020
     FM301600 17004KT P6SM BKN020 BKN025
     FM302000 33012G18KT P6SM SCT025 BKN035 BKN060=

USA.gov is the U.S. government's official web portal to all federal, state and local government web resources and services.